sensor_id;sensor_type;location;lat;lon;timestamp;P1;durP1;ratioP1;P2;durP2;ratioP2
20906;SDS011;10613;50.966;5.814;2024-01-15T00:02:14;11.00;;;10.50;;
20906;SDS011;10613;50.966;5.814;2024-01-15T00:06:21;16.00;;;15.50;;
20906;SDS011;10613;50.966;5.814;2024-01-15T00:10:28;15.00;;;12.00;;
20906;SDS011;10613;50.966;5.814;2024-01-15T00:14:35;13.00;;;13.00;;
20906;SDS011;10613;50.966;5.814;2024-01-15T00:18:42;13.50;;;13.50;;
20906;SDS011;10613;50.966;5.814;2024-01-15T00:22:49;11.50;;;11.50;;
20906;SDS011;10613;50.966;5.814;2024-01-15T00:26:56;15.00;;;12.50;;
20906;SDS011;10613;50.966;5.814;2024-01-15T00:31:04;12.00;;;11.00;;
20906;SDS011;10613;50.966;5.814;2024-01-15T00:35:11;13.00;;;9.50;;
20906;SDS011;10613;50.966;5.814;2024-01-15T00:39:25;15.25;;;13.50;;
20906;SDS011;10613;50.966;5.814;2024-01-15T00:43:32;11.50;;;11.50;;
20906;SDS011;10613;50.966;5.814;2024-01-15T00:47:39;11.00;;;8.50;;
20906;SDS011;10613;50.966;5.814;2024-01-15T00:51:46;14.00;;;13.00;;
20906;SDS011;10613;50.966;5.814;2024-01-15T00:55:54;15.00;;;10.75;;
20906;SDS011;10613;50.966;5.814;2024-01-15T01:00:01;16.50;;;14.50;;
20906;SDS011;10613;50.966;5.814;2024-01-15T01:04:11;10.50;;;10.00;;
20906;SDS011;10613;50.966;5.814;2024-01-15T01:08:18;15.75;;;11.25;;
20906;SDS011;10613;50.966;5.814;2024-01-15T01:12:25;15.00;;;11.00;;
20906;SDS011;10613;50.966;5.814;2024-01-15T01:16:32;13.50;;;12.00;;
20906;SDS011;10613;50.966;5.814;2024-01-15T01:20:45;11.50;;;11.50;;
20906;SDS011;10613;50.966;5.814;2024-01-15T01:24:52;10.00;;;10.00;;
20906;SDS011;10613;50.966;5.814;2024-01-15T01:28:59;11.50;;;11.50;;
20906;SDS011;10613;50.966;5.814;2024-01-15T01:33:06;11.00;;;10.00;;
20906;SDS011;10613;50.966;5.814;2024-01-15T01:37:13;13.00;;;10.00;;
20906;SDS011;10613;50.966;5.814;2024-01-15T01:41:21;11.00;;;10.00;;
20906;SDS011;10613;50.966;5.814;2024-01-15T01:45:28;10.50;;;10.50;;
20906;SDS011;10613;50.966;5.814;2024-01-15T01:49:35;12.00;;;11.50;;
20906;SDS011;10613;50.966;5.814;2024-01-15T01:53:45;10.75;;;8.00;;
20906;SDS011;10613;50.966;5.814;2024-01-15T01:57:52;13.00;;;13.00;;
20906;SDS011;10613;50.966;5.814;2024-01-15T02:01:59;10.25;;;10.00;;
20906;SDS011;10613;50.966;5.814;2024-01-15T02:06:07;13.00;;;12.50;;
20906;SDS011;10613;50.966;5.814;2024-01-15T02:10:21;15.00;;;12.00;;
20906;SDS011;10613;50.966;5.814;2024-01-15T02:14:28;14.50;;;14.50;;
20906;SDS011;10613;50.966;5.814;2024-01-15T02:22:48;16.00;;;16.00;;
20906;SDS011;10613;50.966;5.814;2024-01-15T02:26:55;13.00;;;11.25;;
20906;SDS011;10613;50.966;5.814;2024-01-15T02:31:02;10.25;;;10.25;;
20906;SDS011;10613;50.966;5.814;2024-01-15T02:35:09;10.50;;;10.50;;
20906;SDS011;10613;50.966;5.814;2024-01-15T02:39:23;13.00;;;13.00;;
20906;SDS011;10613;50.966;5.814;2024-01-15T02:43:37;10.00;;;10.00;;
20906;SDS011;10613;50.966;5.814;2024-01-15T02:47:44;17.00;;;13.00;;
20906;SDS011;10613;50.966;5.814;2024-01-15T02:51:51;12.00;;;12.00;;
20906;SDS011;10613;50.966;5.814;2024-01-15T02:55:58;11.00;;;10.50;;
20906;SDS011;10613;50.966;5.814;2024-01-15T03:00:05;8.00;;;7.50;;
20906;SDS011;10613;50.966;5.814;2024-01-15T03:04:14;14.50;;;11.50;;
20906;SDS011;10613;50.966;5.814;2024-01-15T03:08:21;16.25;;;15.00;;
20906;SDS011;10613;50.966;5.814;2024-01-15T03:12:29;15.25;;;9.50;;
20906;SDS011;10613;50.966;5.814;2024-01-15T03:16:36;10.00;;;8.00;;
20906;SDS011;10613;50.966;5.814;2024-01-15T03:20:43;9.50;;;9.50;;
20906;SDS011;10613;50.966;5.814;2024-01-15T03:24:50;15.00;;;10.75;;
20906;SDS011;10613;50.966;5.814;2024-01-15T03:28:57;9.50;;;9.50;;
20906;SDS011;10613;50.966;5.814;2024-01-15T03:33:04;11.50;;;11.00;;
20906;SDS011;10613;50.966;5.814;2024-01-15T03:37:11;10.50;;;8.00;;
20906;SDS011;10613;50.966;5.814;2024-01-15T03:41:19;15.00;;;11.00;;
20906;SDS011;10613;50.966;5.814;2024-01-15T03:45:26;8.00;;;8.00;;
20906;SDS011;10613;50.966;5.814;2024-01-15T03:49:33;12.50;;;12.50;;
20906;SDS011;10613;50.966;5.814;2024-01-15T03:53:40;10.50;;;10.00;;
20906;SDS011;10613;50.966;5.814;2024-01-15T03:57:47;11.00;;;11.00;;
20906;SDS011;10613;50.966;5.814;2024-01-15T04:01:54;11.50;;;11.50;;
20906;SDS011;10613;50.966;5.814;2024-01-15T04:06:01;10.00;;;10.00;;
20906;SDS011;10613;50.966;5.814;2024-01-15T04:10:08;8.00;;;8.00;;
20906;SDS011;10613;50.966;5.814;2024-01-15T04:14:15;6.00;;;5.50;;
20906;SDS011;10613;50.966;5.814;2024-01-15T04:18:22;9.75;;;9.50;;
20906;SDS011;10613;50.966;5.814;2024-01-15T04:22:29;10.00;;;10.00;;
20906;SDS011;10613;50.966;5.814;2024-01-15T04:26:36;8.00;;;8.00;;
20906;SDS011;10613;50.966;5.814;2024-01-15T04:30:43;8.00;;;8.00;;
20906;SDS011;10613;50.966;5.814;2024-01-15T04:34:50;11.00;;;10.00;;
20906;SDS011;10613;50.966;5.814;2024-01-15T04:38:57;6.50;;;5.00;;
20906;SDS011;10613;50.966;5.814;2024-01-15T04:43:04;10.50;;;10.50;;
20906;SDS011;10613;50.966;5.814;2024-01-15T04:47:11;8.25;;;8.25;;
20906;SDS011;10613;50.966;5.814;2024-01-15T04:51:18;9.00;;;6.00;;
20906;SDS011;10613;50.966;5.814;2024-01-15T04:55:25;10.00;;;10.00;;
20906;SDS011;10613;50.966;5.814;2024-01-15T04:59:32;8.50;;;6.50;;
20906;SDS011;10613;50.966;5.814;2024-01-15T05:03:39;6.00;;;6.00;;
20906;SDS011;10613;50.966;5.814;2024-01-15T05:07:46;7.00;;;6.00;;
20906;SDS011;10613;50.966;5.814;2024-01-15T05:11:53;8.00;;;8.00;;
20906;SDS011;10613;50.966;5.814;2024-01-15T05:16:00;7.00;;;5.50;;
20906;SDS011;10613;50.966;5.814;2024-01-15T05:20:07;6.00;;;6.00;;
20906;SDS011;10613;50.966;5.814;2024-01-15T05:24:14;5.25;;;5.25;;
20906;SDS011;10613;50.966;5.814;2024-01-15T05:28:21;6.00;;;6.00;;
20906;SDS011;10613;50.966;5.814;2024-01-15T05:32:28;9.00;;;8.00;;
20906;SDS011;10613;50.966;5.814;2024-01-15T05:36:35;7.00;;;7.00;;
20906;SDS011;10613;50.966;5.814;2024-01-15T05:40:42;7.00;;;7.00;;
20906;SDS011;10613;50.966;5.814;2024-01-15T05:44:49;6.00;;;6.00;;
20906;SDS011;10613;50.966;5.814;2024-01-15T05:48:56;9.00;;;6.00;;
20906;SDS011;10613;50.966;5.814;2024-01-15T05:53:04;6.00;;;5.75;;
20906;SDS011;10613;50.966;5.814;2024-01-15T05:57:11;6.00;;;6.00;;
20906;SDS011;10613;50.966;5.814;2024-01-15T06:01:18;5.00;;;5.00;;
20906;SDS011;10613;50.966;5.814;2024-01-15T06:05:25;8.00;;;6.75;;
20906;SDS011;10613;50.966;5.814;2024-01-15T06:09:39;5.75;;;5.75;;
20906;SDS011;10613;50.966;5.814;2024-01-15T06:13:46;6.00;;;6.00;;
20906;SDS011;10613;50.966;5.814;2024-01-15T06:17:53;8.00;;;8.00;;
20906;SDS011;10613;50.966;5.814;2024-01-15T06:22:00;6.50;;;5.50;;
20906;SDS011;10613;50.966;5.814;2024-01-15T06:26:07;8.00;;;8.00;;
20906;SDS011;10613;50.966;5.814;2024-01-15T06:30:14;6.00;;;6.00;;
20906;SDS011;10613;50.966;5.814;2024-01-15T06:34:21;9.00;;;8.00;;
20906;SDS011;10613;50.966;5.814;2024-01-15T06:38:28;7.50;;;7.50;;
20906;SDS011;10613;50.966;5.814;2024-01-15T06:42:35;9.50;;;6.00;;
20906;SDS011;10613;50.966;5.814;2024-01-15T06:46:42;9.50;;;6.50;;
20906;SDS011;10613;50.966;5.814;2024-01-15T06:50:50;10.00;;;9.00;;
20906;SDS011;10613;50.966;5.814;2024-01-15T06:54:57;10.00;;;10.00;;
20906;SDS011;10613;50.966;5.814;2024-01-15T06:59:04;8.00;;;8.00;;
20906;SDS011;10613;50.966;5.814;2024-01-15T07:03:11;8.50;;;8.00;;
20906;SDS011;10613;50.966;5.814;2024-01-15T07:07:18;6.00;;;6.00;;
20906;SDS011;10613;50.966;5.814;2024-01-15T07:11:25;9.50;;;8.00;;
20906;SDS011;10613;50.966;5.814;2024-01-15T07:15:32;13.50;;;11.00;;
20906;SDS011;10613;50.966;5.814;2024-01-15T07:19:39;8.50;;;8.50;;
20906;SDS011;10613;50.966;5.814;2024-01-15T07:23:46;7.00;;;7.00;;
20906;SDS011;10613;50.966;5.814;2024-01-15T07:27:54;7.50;;;6.00;;
20906;SDS011;10613;50.966;5.814;2024-01-15T07:32:01;6.00;;;6.00;;
20906;SDS011;10613;50.966;5.814;2024-01-15T07:36:08;7.00;;;7.00;;
20906;SDS011;10613;50.966;5.814;2024-01-15T07:40:15;7.75;;;7.75;;
20906;SDS011;10613;50.966;5.814;2024-01-15T07:44:22;9.50;;;7.00;;
20906;SDS011;10613;50.966;5.814;2024-01-15T07:48:29;8.00;;;8.00;;
20906;SDS011;10613;50.966;5.814;2024-01-15T07:52:36;12.50;;;10.00;;
20906;SDS011;10613;50.966;5.814;2024-01-15T07:56:53;10.00;;;8.00;;
20906;SDS011;10613;50.966;5.814;2024-01-15T08:01:07;6.00;;;5.00;;
20906;SDS011;10613;50.966;5.814;2024-01-15T08:05:14;6.00;;;6.00;;
20906;SDS011;10613;50.966;5.814;2024-01-15T08:09:21;6.00;;;6.00;;
20906;SDS011;10613;50.966;5.814;2024-01-15T08:13:28;5.75;;;5.75;;
20906;SDS011;10613;50.966;5.814;2024-01-15T08:17:35;6.00;;;6.00;;
20906;SDS011;10613;50.966;5.814;2024-01-15T08:21:42;7.00;;;7.00;;
20906;SDS011;10613;50.966;5.814;2024-01-15T08:25:49;5.00;;;5.00;;
20906;SDS011;10613;50.966;5.814;2024-01-15T08:29:57;8.00;;;8.00;;
20906;SDS011;10613;50.966;5.814;2024-01-15T08:34:04;5.50;;;5.50;;
20906;SDS011;10613;50.966;5.814;2024-01-15T08:38:12;6.00;;;6.00;;
20906;SDS011;10613;50.966;5.814;2024-01-15T08:42:26;10.00;;;7.00;;
20906;SDS011;10613;50.966;5.814;2024-01-15T08:46:33;10.00;;;10.00;;
20906;SDS011;10613;50.966;5.814;2024-01-15T08:50:40;6.00;;;5.00;;
20906;SDS011;10613;50.966;5.814;2024-01-15T08:54:47;3.00;;;3.00;;
20906;SDS011;10613;50.966;5.814;2024-01-15T08:58:54;7.00;;;6.00;;
20906;SDS011;10613;50.966;5.814;2024-01-15T09:03:02;8.00;;;8.00;;
20906;SDS011;10613;50.966;5.814;2024-01-15T09:07:08;5.75;;;5.75;;
20906;SDS011;10613;50.966;5.814;2024-01-15T09:11:15;5.25;;;5.25;;
20906;SDS011;10613;50.966;5.814;2024-01-15T09:15:22;5.50;;;5.50;;
20906;SDS011;10613;50.966;5.814;2024-01-15T09:19:29;5.25;;;5.25;;
20906;SDS011;10613;50.966;5.814;2024-01-15T09:23:43;5.75;;;5.00;;
20906;SDS011;10613;50.966;5.814;2024-01-15T09:27:50;5.50;;;5.50;;
20906;SDS011;10613;50.966;5.814;2024-01-15T09:31:57;5.00;;;5.00;;
20906;SDS011;10613;50.966;5.814;2024-01-15T09:36:04;5.00;;;5.00;;
20906;SDS011;10613;50.966;5.814;2024-01-15T09:40:12;5.00;;;5.00;;
20906;SDS011;10613;50.966;5.814;2024-01-15T09:44:20;6.50;;;6.50;;
20906;SDS011;10613;50.966;5.814;2024-01-15T09:48:27;5.00;;;5.00;;
20906;SDS011;10613;50.966;5.814;2024-01-15T09:52:34;4.50;;;4.50;;
20906;SDS011;10613;50.966;5.814;2024-01-15T09:56:46;5.00;;;5.00;;
20906;SDS011;10613;50.966;5.814;2024-01-15T10:00:53;5.00;;;5.00;;
20906;SDS011;10613;50.966;5.814;2024-01-15T10:05:00;4.00;;;4.00;;
20906;SDS011;10613;50.966;5.814;2024-01-15T10:09:07;5.00;;;5.00;;
20906;SDS011;10613;50.966;5.814;2024-01-15T10:13:14;3.50;;;3.50;;
20906;SDS011;10613;50.966;5.814;2024-01-15T10:17:21;4.50;;;4.50;;
20906;SDS011;10613;50.966;5.814;2024-01-15T10:21:28;3.00;;;3.00;;
20906;SDS011;10613;50.966;5.814;2024-01-15T10:25:37;5.25;;;5.00;;
20906;SDS011;10613;50.966;5.814;2024-01-15T10:29:44;5.00;;;5.00;;
20906;SDS011;10613;50.966;5.814;2024-01-15T10:33:51;4.50;;;3.00;;
20906;SDS011;10613;50.966;5.814;2024-01-15T10:38:01;3.00;;;3.00;;
20906;SDS011;10613;50.966;5.814;2024-01-15T10:42:09;3.00;;;3.00;;
20906;SDS011;10613;50.966;5.814;2024-01-15T10:46:16;3.00;;;3.00;;
20906;SDS011;10613;50.966;5.814;2024-01-15T10:50:23;3.50;;;3.50;;
20906;SDS011;10613;50.966;5.814;2024-01-15T10:54:31;5.50;;;5.00;;
20906;SDS011;10613;50.966;5.814;2024-01-15T10:58:39;3.00;;;3.00;;
20906;SDS011;10613;50.966;5.814;2024-01-15T11:02:46;5.00;;;5.00;;
20906;SDS011;10613;50.966;5.814;2024-01-15T11:06:53;3.00;;;3.00;;
20906;SDS011;10613;50.966;5.814;2024-01-15T11:11:01;3.00;;;3.00;;
20906;SDS011;10613;50.966;5.814;2024-01-15T11:15:08;4.50;;;4.25;;
20906;SDS011;10613;50.966;5.814;2024-01-15T11:19:15;3.00;;;3.00;;
20906;SDS011;10613;50.966;5.814;2024-01-15T11:23:41;3.00;;;3.00;;
20906;SDS011;10613;50.966;5.814;2024-01-15T11:27:52;2.00;;;2.00;;
20906;SDS011;10613;50.966;5.814;2024-01-15T11:31:59;2.00;;;2.00;;
20906;SDS011;10613;50.966;5.814;2024-01-15T11:36:06;3.00;;;3.00;;
20906;SDS011;10613;50.966;5.814;2024-01-15T11:40:15;3.25;;;3.25;;
20906;SDS011;10613;50.966;5.814;2024-01-15T11:44:23;3.00;;;3.00;;
20906;SDS011;10613;50.966;5.814;2024-01-15T11:48:32;3.00;;;3.00;;
20906;SDS011;10613;50.966;5.814;2024-01-15T11:52:51;3.00;;;3.00;;
20906;SDS011;10613;50.966;5.814;2024-01-15T11:57:04;4.50;;;3.00;;
20906;SDS011;10613;50.966;5.814;2024-01-15T12:01:12;2.00;;;2.00;;
20906;SDS011;10613;50.966;5.814;2024-01-15T12:05:20;3.50;;;3.00;;
20906;SDS011;10613;50.966;5.814;2024-01-15T12:09:33;3.00;;;3.00;;
20906;SDS011;10613;50.966;5.814;2024-01-15T12:13:40;3.00;;;3.00;;
20906;SDS011;10613;50.966;5.814;2024-01-15T12:17:47;4.50;;;4.50;;
20906;SDS011;10613;50.966;5.814;2024-01-15T12:21:54;2.50;;;2.50;;
20906;SDS011;10613;50.966;5.814;2024-01-15T12:26:01;4.50;;;3.00;;
20906;SDS011;10613;50.966;5.814;2024-01-15T12:30:12;3.00;;;3.00;;
20906;SDS011;10613;50.966;5.814;2024-01-15T12:34:19;4.25;;;4.25;;
20906;SDS011;10613;50.966;5.814;2024-01-15T12:38:28;3.00;;;3.00;;
20906;SDS011;10613;50.966;5.814;2024-01-15T12:42:35;5.25;;;3.00;;
20906;SDS011;10613;50.966;5.814;2024-01-15T12:46:41;5.00;;;5.00;;
20906;SDS011;10613;50.966;5.814;2024-01-15T12:50:48;4.00;;;4.00;;
20906;SDS011;10613;50.966;5.814;2024-01-15T12:54:58;2.50;;;2.50;;
20906;SDS011;10613;50.966;5.814;2024-01-15T12:59:05;1.00;;;1.00;;
20906;SDS011;10613;50.966;5.814;2024-01-15T13:03:13;1.00;;;1.00;;
20906;SDS011;10613;50.966;5.814;2024-01-15T13:07:19;3.00;;;3.00;;
20906;SDS011;10613;50.966;5.814;2024-01-15T13:11:27;3.00;;;3.00;;
20906;SDS011;10613;50.966;5.814;2024-01-15T13:15:33;3.50;;;3.50;;
20906;SDS011;10613;50.966;5.814;2024-01-15T13:19:47;2.50;;;2.50;;
20906;SDS011;10613;50.966;5.814;2024-01-15T13:23:54;3.00;;;3.00;;
20906;SDS011;10613;50.966;5.814;2024-01-15T13:28:01;3.00;;;3.00;;
20906;SDS011;10613;50.966;5.814;2024-01-15T13:32:09;1.50;;;1.50;;
20906;SDS011;10613;50.966;5.814;2024-01-15T13:36:17;2.00;;;2.00;;
20906;SDS011;10613;50.966;5.814;2024-01-15T13:40:24;3.00;;;3.00;;
20906;SDS011;10613;50.966;5.814;2024-01-15T13:44:31;3.00;;;3.00;;
20906;SDS011;10613;50.966;5.814;2024-01-15T13:48:39;1.00;;;1.00;;
20906;SDS011;10613;50.966;5.814;2024-01-15T13:52:46;1.00;;;1.00;;
20906;SDS011;10613;50.966;5.814;2024-01-15T13:56:53;1.00;;;1.00;;
20906;SDS011;10613;50.966;5.814;2024-01-15T14:01:00;1.00;;;1.00;;
20906;SDS011;10613;50.966;5.814;2024-01-15T14:05:14;3.00;;;3.00;;
20906;SDS011;10613;50.966;5.814;2024-01-15T14:09:20;3.75;;;1.00;;
20906;SDS011;10613;50.966;5.814;2024-01-15T14:13:28;1.50;;;1.50;;
20906;SDS011;10613;50.966;5.814;2024-01-15T14:17:35;3.00;;;3.00;;
20906;SDS011;10613;50.966;5.814;2024-01-15T14:21:42;5.00;;;3.50;;
20906;SDS011;10613;50.966;5.814;2024-01-15T14:25:49;2.50;;;2.50;;
20906;SDS011;10613;50.966;5.814;2024-01-15T14:29:56;1.00;;;1.00;;
20906;SDS011;10613;50.966;5.814;2024-01-15T14:34:04;1.50;;;1.00;;
20906;SDS011;10613;50.966;5.814;2024-01-15T14:38:11;3.00;;;3.00;;
20906;SDS011;10613;50.966;5.814;2024-01-15T14:42:18;1.50;;;1.50;;
20906;SDS011;10613;50.966;5.814;2024-01-15T14:46:25;2.00;;;2.00;;
20906;SDS011;10613;50.966;5.814;2024-01-15T14:50:34;3.25;;;2.50;;
20906;SDS011;10613;50.966;5.814;2024-01-15T14:54:41;1.50;;;1.50;;
20906;SDS011;10613;50.966;5.814;2024-01-15T14:58:48;1.00;;;1.00;;
20906;SDS011;10613;50.966;5.814;2024-01-15T15:02:55;2.00;;;2.00;;
20906;SDS011;10613;50.966;5.814;2024-01-15T15:07:02;3.00;;;3.00;;
20906;SDS011;10613;50.966;5.814;2024-01-15T15:11:09;3.00;;;3.00;;
20906;SDS011;10613;50.966;5.814;2024-01-15T15:15:17;3.75;;;3.75;;
20906;SDS011;10613;50.966;5.814;2024-01-15T15:19:25;3.25;;;3.25;;
20906;SDS011;10613;50.966;5.814;2024-01-15T15:23:38;1.00;;;1.00;;
20906;SDS011;10613;50.966;5.814;2024-01-15T15:27:46;2.00;;;2.00;;
20906;SDS011;10613;50.966;5.814;2024-01-15T15:31:53;1.00;;;1.00;;
20906;SDS011;10613;50.966;5.814;2024-01-15T15:36:00;2.50;;;2.50;;
20906;SDS011;10613;50.966;5.814;2024-01-15T15:40:11;1.00;;;1.00;;
20906;SDS011;10613;50.966;5.814;2024-01-15T15:44:20;2.50;;;2.50;;
20906;SDS011;10613;50.966;5.814;2024-01-15T15:48:27;1.50;;;1.50;;
20906;SDS011;10613;50.966;5.814;2024-01-15T15:52:34;2.00;;;2.00;;
20906;SDS011;10613;50.966;5.814;2024-01-15T15:56:41;3.00;;;3.00;;
20906;SDS011;10613;50.966;5.814;2024-01-15T16:00:49;3.00;;;3.00;;
20906;SDS011;10613;50.966;5.814;2024-01-15T16:04:56;3.00;;;3.00;;
20906;SDS011;10613;50.966;5.814;2024-01-15T16:09:04;5.75;;;5.75;;
20906;SDS011;10613;50.966;5.814;2024-01-15T16:13:11;5.00;;;5.00;;
20906;SDS011;10613;50.966;5.814;2024-01-15T16:17:18;3.50;;;3.50;;
20906;SDS011;10613;50.966;5.814;2024-01-15T16:21:32;2.00;;;2.00;;
20906;SDS011;10613;50.966;5.814;2024-01-15T16:25:39;5.25;;;3.00;;
20906;SDS011;10613;50.966;5.814;2024-01-15T16:29:53;5.00;;;5.00;;
20906;SDS011;10613;50.966;5.814;2024-01-15T16:34:14;5.00;;;5.00;;
20906;SDS011;10613;50.966;5.814;2024-01-15T16:38:21;3.00;;;3.00;;
20906;SDS011;10613;50.966;5.814;2024-01-15T16:42:28;3.00;;;3.00;;
20906;SDS011;10613;50.966;5.814;2024-01-15T16:46:35;5.00;;;5.00;;
20906;SDS011;10613;50.966;5.814;2024-01-15T16:50:42;4.00;;;4.00;;
20906;SDS011;10613;50.966;5.814;2024-01-15T16:54:49;3.00;;;3.00;;
20906;SDS011;10613;50.966;5.814;2024-01-15T16:58:56;3.00;;;3.00;;
20906;SDS011;10613;50.966;5.814;2024-01-15T17:03:03;3.00;;;3.00;;
20906;SDS011;10613;50.966;5.814;2024-01-15T17:07:10;2.50;;;2.50;;
20906;SDS011;10613;50.966;5.814;2024-01-15T17:11:17;1.00;;;1.00;;
20906;SDS011;10613;50.966;5.814;2024-01-15T17:15:24;5.75;;;5.00;;
20906;SDS011;10613;50.966;5.814;2024-01-15T17:19:31;5.00;;;3.00;;
20906;SDS011;10613;50.966;5.814;2024-01-15T17:23:38;3.00;;;3.00;;
20906;SDS011;10613;50.966;5.814;2024-01-15T17:27:45;5.00;;;5.00;;
20906;SDS011;10613;50.966;5.814;2024-01-15T17:31:52;3.00;;;3.00;;
20906;SDS011;10613;50.966;5.814;2024-01-15T17:35:59;3.50;;;3.50;;
20906;SDS011;10613;50.966;5.814;2024-01-15T17:40:13;3.00;;;3.00;;
20906;SDS011;10613;50.966;5.814;2024-01-15T17:44:20;3.00;;;3.00;;
20906;SDS011;10613;50.966;5.814;2024-01-15T17:48:27;5.00;;;5.00;;
20906;SDS011;10613;50.966;5.814;2024-01-15T17:52:34;4.00;;;4.00;;
20906;SDS011;10613;50.966;5.814;2024-01-15T17:56:41;3.00;;;3.00;;
20906;SDS011;10613;50.966;5.814;2024-01-15T18:00:48;3.00;;;3.00;;
20906;SDS011;10613;50.966;5.814;2024-01-15T18:04:55;5.00;;;5.00;;
20906;SDS011;10613;50.966;5.814;2024-01-15T18:09:02;3.25;;;3.25;;
20906;SDS011;10613;50.966;5.814;2024-01-15T18:13:09;5.00;;;5.00;;
20906;SDS011;10613;50.966;5.814;2024-01-15T18:17:24;4.50;;;4.50;;
20906;SDS011;10613;50.966;5.814;2024-01-15T18:21:32;5.00;;;5.00;;
20906;SDS011;10613;50.966;5.814;2024-01-15T18:25:39;5.25;;;4.00;;
20906;SDS011;10613;50.966;5.814;2024-01-15T18:29:47;5.25;;;5.25;;
20906;SDS011;10613;50.966;5.814;2024-01-15T18:33:54;5.00;;;5.00;;
20906;SDS011;10613;50.966;5.814;2024-01-15T18:38:01;5.00;;;5.00;;
20906;SDS011;10613;50.966;5.814;2024-01-15T18:42:08;6.50;;;6.50;;
20906;SDS011;10613;50.966;5.814;2024-01-15T18:46:15;5.00;;;5.00;;
20906;SDS011;10613;50.966;5.814;2024-01-15T18:50:24;6.00;;;6.00;;
20906;SDS011;10613;50.966;5.814;2024-01-15T18:54:31;3.00;;;3.00;;
20906;SDS011;10613;50.966;5.814;2024-01-15T18:58:38;5.00;;;5.00;;
20906;SDS011;10613;50.966;5.814;2024-01-15T19:02:48;4.50;;;4.50;;
20906;SDS011;10613;50.966;5.814;2024-01-15T19:06:55;7.50;;;5.75;;
20906;SDS011;10613;50.966;5.814;2024-01-15T19:11:02;3.00;;;3.00;;
20906;SDS011;10613;50.966;5.814;2024-01-15T19:15:10;5.75;;;5.75;;
20906;SDS011;10613;50.966;5.814;2024-01-15T19:19:17;7.00;;;7.00;;
20906;SDS011;10613;50.966;5.814;2024-01-15T19:23:24;5.00;;;5.00;;
20906;SDS011;10613;50.966;5.814;2024-01-15T19:27:31;5.00;;;5.00;;
20906;SDS011;10613;50.966;5.814;2024-01-15T19:31:39;5.00;;;5.00;;
20906;SDS011;10613;50.966;5.814;2024-01-15T19:35:46;5.50;;;5.50;;
20906;SDS011;10613;50.966;5.814;2024-01-15T19:39:53;5.00;;;5.00;;
20906;SDS011;10613;50.966;5.814;2024-01-15T19:44:07;5.25;;;4.00;;
20906;SDS011;10613;50.966;5.814;2024-01-15T19:48:15;4.50;;;4.50;;
20906;SDS011;10613;50.966;5.814;2024-01-15T19:52:24;7.50;;;7.50;;
20906;SDS011;10613;50.966;5.814;2024-01-15T19:56:31;5.00;;;5.00;;
20906;SDS011;10613;50.966;5.814;2024-01-15T20:00:38;3.00;;;3.00;;
20906;SDS011;10613;50.966;5.814;2024-01-15T20:04:45;5.00;;;5.00;;
20906;SDS011;10613;50.966;5.814;2024-01-15T20:08:52;7.50;;;7.50;;
20906;SDS011;10613;50.966;5.814;2024-01-15T20:13:01;5.00;;;5.00;;
20906;SDS011;10613;50.966;5.814;2024-01-15T20:17:09;3.00;;;3.00;;
20906;SDS011;10613;50.966;5.814;2024-01-15T20:21:16;3.00;;;3.00;;
20906;SDS011;10613;50.966;5.814;2024-01-15T20:25:24;5.00;;;5.00;;
20906;SDS011;10613;50.966;5.814;2024-01-15T20:29:31;5.00;;;5.00;;
20906;SDS011;10613;50.966;5.814;2024-01-15T20:33:38;3.00;;;3.00;;
20906;SDS011;10613;50.966;5.814;2024-01-15T20:37:45;5.25;;;5.25;;
20906;SDS011;10613;50.966;5.814;2024-01-15T20:41:52;5.00;;;5.00;;
20906;SDS011;10613;50.966;5.814;2024-01-15T20:45:59;3.00;;;3.00;;
20906;SDS011;10613;50.966;5.814;2024-01-15T20:50:07;5.00;;;5.00;;
20906;SDS011;10613;50.966;5.814;2024-01-15T20:54:14;5.00;;;5.00;;
20906;SDS011;10613;50.966;5.814;2024-01-15T20:58:21;5.00;;;5.00;;
20906;SDS011;10613;50.966;5.814;2024-01-15T21:02:29;3.50;;;3.50;;
20906;SDS011;10613;50.966;5.814;2024-01-15T21:06:36;5.50;;;5.00;;
20906;SDS011;10613;50.966;5.814;2024-01-15T21:10:43;5.50;;;4.00;;
20906;SDS011;10613;50.966;5.814;2024-01-15T21:14:50;4.00;;;3.00;;
20906;SDS011;10613;50.966;5.814;2024-01-15T21:19:02;3.00;;;3.00;;
20906;SDS011;10613;50.966;5.814;2024-01-15T21:23:09;8.50;;;5.75;;
20906;SDS011;10613;50.966;5.814;2024-01-15T21:27:16;5.50;;;5.50;;
20906;SDS011;10613;50.966;5.814;2024-01-15T21:31:23;4.00;;;3.50;;
20906;SDS011;10613;50.966;5.814;2024-01-15T21:35:30;5.00;;;5.00;;
20906;SDS011;10613;50.966;5.814;2024-01-15T21:39:37;5.00;;;5.00;;
20906;SDS011;10613;50.966;5.814;2024-01-15T21:43:44;5.75;;;5.75;;
20906;SDS011;10613;50.966;5.814;2024-01-15T21:47:51;6.00;;;6.00;;
20906;SDS011;10613;50.966;5.814;2024-01-15T21:51:58;6.00;;;5.00;;
20906;SDS011;10613;50.966;5.814;2024-01-15T21:56:05;3.50;;;3.50;;
20906;SDS011;10613;50.966;5.814;2024-01-15T22:00:12;5.00;;;5.00;;
20906;SDS011;10613;50.966;5.814;2024-01-15T22:04:22;5.75;;;5.75;;
20906;SDS011;10613;50.966;5.814;2024-01-15T22:08:29;6.00;;;6.00;;
20906;SDS011;10613;50.966;5.814;2024-01-15T22:12:36;5.25;;;5.25;;
20906;SDS011;10613;50.966;5.814;2024-01-15T22:16:43;3.50;;;3.00;;
20906;SDS011;10613;50.966;5.814;2024-01-15T22:20:50;4.00;;;4.00;;
20906;SDS011;10613;50.966;5.814;2024-01-15T22:25:04;5.00;;;4.50;;
20906;SDS011;10613;50.966;5.814;2024-01-15T22:29:18;5.75;;;5.75;;
20906;SDS011;10613;50.966;5.814;2024-01-15T22:33:25;5.00;;;5.00;;
20906;SDS011;10613;50.966;5.814;2024-01-15T22:37:35;5.00;;;5.00;;
20906;SDS011;10613;50.966;5.814;2024-01-15T22:41:42;8.00;;;5.00;;
20906;SDS011;10613;50.966;5.814;2024-01-15T22:45:49;5.25;;;5.00;;
20906;SDS011;10613;50.966;5.814;2024-01-15T22:49:56;6.50;;;5.00;;
20906;SDS011;10613;50.966;5.814;2024-01-15T22:54:03;3.50;;;3.50;;
20906;SDS011;10613;50.966;5.814;2024-01-15T22:58:10;5.00;;;5.00;;
20906;SDS011;10613;50.966;5.814;2024-01-15T23:02:17;7.00;;;6.00;;
20906;SDS011;10613;50.966;5.814;2024-01-15T23:06:24;5.50;;;5.50;;
20906;SDS011;10613;50.966;5.814;2024-01-15T23:10:32;10.25;;;10.00;;
20906;SDS011;10613;50.966;5.814;2024-01-15T23:14:39;4.25;;;4.25;;
20906;SDS011;10613;50.966;5.814;2024-01-15T23:18:46;2.50;;;2.50;;
20906;SDS011;10613;50.966;5.814;2024-01-15T23:22:53;5.75;;;5.25;;
20906;SDS011;10613;50.966;5.814;2024-01-15T23:27:00;5.00;;;5.00;;
20906;SDS011;10613;50.966;5.814;2024-01-15T23:31:07;4.25;;;4.25;;
20906;SDS011;10613;50.966;5.814;2024-01-15T23:35:14;3.25;;;3.25;;
20906;SDS011;10613;50.966;5.814;2024-01-15T23:39:21;4.00;;;3.50;;
20906;SDS011;10613;50.966;5.814;2024-01-15T23:43:28;5.00;;;5.00;;
20906;SDS011;10613;50.966;5.814;2024-01-15T23:47:35;5.25;;;5.25;;
20906;SDS011;10613;50.966;5.814;2024-01-15T23:51:42;6.00;;;6.00;;
20906;SDS011;10613;50.966;5.814;2024-01-15T23:55:51;4.50;;;4.50;;
20906;SDS011;10613;50.966;5.814;2024-01-15T23:59:59;5.00;;;5.00;;
